Terminal Aerodrome Forecast
Issued by NWS

Home | Current Version | Previous Version | Text Only | Print | Product List | Glossary On
Versions: 1 2 3 4 5 6 7 8 9 10 11 12 13 14
629
FTUS42 KMLB 231725
TAFLEE
TAF
KLEE 231725Z 2318/2418 22011G18KT P6SM VCTS FEW030 SCT040CB BKN150
     FM232300 24012KT P6SM SCT040 BKN250
     FM240700 20014G19KT P6SM FEW015 SCT030 BKN100
     FM241200 21013G19KT P6SM VCTS SCT020 SCT035CB BKN060
      TEMPO 2412/2415 VRB15G30KT 2SM TSRA BKN015 BKN025CB=

USA.gov is the U.S. government's official web portal to all federal, state and local government web resources and services.